Time,TemperatureF,DewpointF,PressureIn,WindDirection,WindDirectionDegrees,WindSpeedMPH,WindSpeedGustMPH,Humidity,HourlyPrecipIn,Conditions,Clouds,dailyrainin,SolarRadiationWatts/m^2,SoftwareType,DateUTC
2013-04-01 00:02:00,38.0,21.0,-100.00,NW,311,0.0,0.0,50,0.00,,,0.00,0.000000,,2013-04-01 07:02:00,
2013-04-01 00:32:00,42.0,30.0,-100.00,SW,233,3.0,7.0,61,0.00,,,-99.99,0.000000,,2013-04-01 07:32:00,
2013-04-01 00:43:00,42.0,30.0,-100.00,SW,233,3.0,7.0,61,0.00,,,-99.99,0.000000,,2013-04-01 07:43:00,
2013-04-01 00:52:00,42.0,30.0,-100.00,SW,233,3.0,7.0,61,0.00,,,-99.99,0.000000,,2013-04-01 07:52:00,
2013-04-01 01:02:00,42.0,30.0,-100.00,SW,233,3.0,7.0,61,0.00,,,-99.99,0.000000,,2013-04-01 08:02:00,
2013-04-01 01:32:00,35.0,21.0,-100.00,NW,321,0.0,6.0,57,0.00,,,0.00,0.000000,,2013-04-01 08:32:00,
2013-04-01 01:43:00,35.0,21.0,-100.00,NW,321,0.0,6.0,57,0.00,,,0.00,0.000000,,2013-04-01 08:43:00,
2013-04-01 01:53:00,35.0,21.0,-100.00,NW,321,0.0,6.0,57,0.00,,,0.00,0.000000,,2013-04-01 08:53:00,
2013-04-01 02:02:00,35.0,21.0,-100.00,NW,321,0.0,6.0,57,0.00,,,0.00,0.000000,,2013-04-01 09:02:00,
2013-04-01 02:33:00,33.0,25.0,-100.00,SW,221,0.0,0.0,71,0.00,,,0.00,0.000000,,2013-04-01 09:33:00,
2013-04-01 02:43:00,33.0,25.0,-100.00,SW,221,0.0,0.0,71,0.00,,,0.00,0.000000,,2013-04-01 09:43:00,
2013-04-01 02:53:00,33.0,25.0,-100.00,SW,221,0.0,0.0,71,0.00,,,0.00,0.000000,,2013-04-01 09:53:00,
2013-04-01 03:02:00,33.0,25.0,-100.00,SW,221,0.0,0.0,71,0.00,,,0.00,0.000000,,2013-04-01 10:02:00,
2013-04-01 03:34:00,30.0,24.0,-100.00,WSW,256,0.0,0.0,79,0.00,,,0.00,0.000000,,2013-04-01 10:34:00,
2013-04-01 03:42:00,30.0,24.0,-100.00,WSW,256,0.0,0.0,79,0.00,,,0.00,0.000000,,2013-04-01 10:42:00,
2013-04-01 03:53:00,30.0,24.0,-100.00,WSW,256,0.0,0.0,79,0.00,,,0.00,0.000000,,2013-04-01 10:53:00,
2013-04-01 04:02:00,30.0,24.0,-100.00,WSW,256,0.0,0.0,79,0.00,,,0.00,0.000000,,2013-04-01 11:02:00,
2013-04-01 04:33:00,29.0,25.0,-100.00,ENE,69,0.0,0.0,83,0.00,,,0.00,0.000000,,2013-04-01 11:33:00,
2013-04-01 04:43:00,29.0,25.0,-100.00,ENE,69,0.0,0.0,83,0.00,,,0.00,0.000000,,2013-04-01 11:43:00,
2013-04-01 04:53:00,29.0,25.0,-100.00,ENE,69,0.0,0.0,83,0.00,,,0.00,0.000000,,2013-04-01 11:53:00,
2013-04-01 05:02:00,29.0,25.0,-100.00,ENE,69,0.0,0.0,83,0.00,,,0.00,0.000000,,2013-04-01 12:02:00,
2013-04-01 05:32:00,33.0,29.0,-100.00,WNW,303,1.0,7.0,84,0.00,,,-99.99,0.000000,,2013-04-01 12:32:00,
2013-04-01 05:43:00,33.0,29.0,-100.00,WNW,303,1.0,7.0,84,0.00,,,-99.99,0.000000,,2013-04-01 12:43:00,
2013-04-01 05:53:00,33.0,29.0,-100.00,WNW,303,1.0,7.0,84,0.00,,,-99.99,0.000000,,2013-04-01 12:53:00,
2013-04-01 06:02:00,33.0,29.0,-100.00,WNW,303,1.0,7.0,84,0.00,,,-99.99,0.000000,,2013-04-01 13:02:00,
2013-04-01 06:33:00,33.0,28.0,-100.00,WNW,287,1.0,6.0,81,0.00,,,0.00,0.000000,,2013-04-01 13:33:00,
2013-04-01 06:43:00,33.0,28.0,-100.00,WNW,287,1.0,6.0,81,0.00,,,0.00,0.000000,,2013-04-01 13:43:00,
2013-04-01 06:52:00,33.0,28.0,-100.00,WNW,287,1.0,6.0,81,0.00,,,0.00,0.000000,,2013-04-01 13:52:00,
2013-04-01 07:02:00,33.0,28.0,-100.00,WNW,287,1.0,6.0,81,0.00,,,0.00,0.000000,,2013-04-01 14:02:00,
2013-04-01 07:33:00,35.0,30.0,-100.00,NNW,327,0.0,0.0,82,0.00,,,0.00,58.000000,,2013-04-01 14:33:00,
2013-04-01 07:42:00,35.0,30.0,-100.00,NNW,327,0.0,0.0,82,0.00,,,0.00,58.000000,,2013-04-01 14:42:00,
2013-04-01 07:53:00,35.0,30.0,-100.00,NNW,327,0.0,0.0,82,0.00,,,0.00,58.000000,,2013-04-01 14:53:00,
2013-04-01 08:02:00,35.0,30.0,-100.00,NNW,327,0.0,0.0,82,0.00,,,0.00,58.000000,,2013-04-01 15:02:00,
2013-04-01 08:34:00,46.0,31.0,-100.00,SW,216,9.0,14.0,56,0.00,,,0.00,263.000000,,2013-04-01 15:34:00,
2013-04-01 08:43:00,46.0,31.0,-100.00,SW,216,9.0,14.0,56,0.00,,,0.00,263.000000,,2013-04-01 15:43:00,
2013-04-01 08:53:00,46.0,31.0,-100.00,SW,216,9.0,14.0,56,0.00,,,0.00,263.000000,,2013-04-01 15:53:00,
2013-04-01 09:02:00,46.0,31.0,-100.00,SW,216,9.0,14.0,56,0.00,,,0.00,263.000000,,2013-04-01 16:02:00,
2013-04-01 10:32:00,53.0,25.0,-100.00,SW,235,10.0,19.0,34,-99.99,,,0.00,679.000000,,2013-04-01 17:32:00,
2013-04-01 10:42:00,53.0,25.0,-100.00,SW,235,10.0,19.0,34,-99.99,,,0.00,679.000000,,2013-04-01 17:42:00,
2013-04-01 10:53:00,53.0,25.0,-100.00,SW,235,10.0,19.0,34,-99.99,,,0.00,679.000000,,2013-04-01 17:53:00,
2013-04-01 11:02:00,53.0,25.0,-100.00,SW,235,10.0,19.0,34,-99.99,,,0.00,679.000000,,2013-04-01 18:02:00,
2013-04-01 11:33:00,54.0,18.0,-100.00,SW,220,11.0,24.0,24,0.00,,,0.00,830.000000,,2013-04-01 18:33:00,
2013-04-01 11:43:00,54.0,18.0,-100.00,SW,220,11.0,24.0,24,0.00,,,0.00,830.000000,,2013-04-01 18:43:00,
2013-04-01 11:53:00,54.0,18.0,-100.00,SW,220,11.0,24.0,24,0.00,,,0.00,830.000000,,2013-04-01 18:53:00,
2013-04-01 12:03:00,54.0,18.0,-100.00,SW,220,11.0,24.0,24,0.00,,,0.00,830.000000,,2013-04-01 19:03:00,
2013-04-01 12:32:00,55.0,21.0,-100.00,SW,236,14.0,24.0,26,0.00,,,0.00,856.000000,,2013-04-01 19:32:00,
2013-04-01 12:42:00,55.0,21.0,-100.00,SW,236,14.0,24.0,26,0.00,,,0.00,856.000000,,2013-04-01 19:42:00,
2013-04-01 12:53:00,55.0,21.0,-100.00,SW,236,14.0,24.0,26,0.00,,,0.00,856.000000,,2013-04-01 19:53:00,
2013-04-01 13:02:00,55.0,21.0,-100.00,SW,236,14.0,24.0,26,0.00,,,0.00,856.000000,,2013-04-01 20:02:00,
2013-04-01 13:33:00,58.0,22.0,-100.00,SW,224,11.0,25.0,25,0.00,,,0.00,870.000000,,2013-04-01 20:33:00,
2013-04-01 13:43:00,58.0,22.0,-100.00,SW,224,11.0,25.0,25,0.00,,,0.00,870.000000,,2013-04-01 20:43:00,
2013-04-01 13:52:00,58.0,22.0,-100.00,SW,224,11.0,25.0,25,0.00,,,0.00,870.000000,,2013-04-01 20:52:00,
2013-04-01 14:02:00,58.0,22.0,-100.00,SW,224,11.0,25.0,25,0.00,,,0.00,870.000000,,2013-04-01 21:02:00,
2013-04-01 14:33:00,58.0,20.0,-100.00,SW,226,14.0,27.0,23,0.00,,,0.00,838.000000,,2013-04-01 21:33:00,
2013-04-01 14:43:00,58.0,20.0,-100.00,SW,226,14.0,27.0,23,0.00,,,0.00,838.000000,,2013-04-01 21:43:00,
2013-04-01 14:53:00,58.0,20.0,-100.00,SW,226,14.0,27.0,23,0.00,,,0.00,838.000000,,2013-04-01 21:53:00,
2013-04-01 15:02:00,58.0,20.0,-100.00,SW,226,14.0,27.0,23,0.00,,,0.00,838.000000,,2013-04-01 22:02:00,
2013-04-01 15:33:00,58.0,20.0,-100.00,SW,219,12.0,27.0,23,0.00,,,0.00,735.000000,,2013-04-01 22:33:00,
2013-04-01 15:43:00,58.0,20.0,-100.00,SW,219,12.0,27.0,23,0.00,,,0.00,735.000000,,2013-04-01 22:43:00,
2013-04-01 15:52:00,58.0,20.0,-100.00,SW,219,12.0,27.0,23,0.00,,,0.00,735.000000,,2013-04-01 22:52:00,
2013-04-01 16:02:00,58.0,20.0,-100.00,SW,219,12.0,27.0,23,0.00,,,0.00,735.000000,,2013-04-01 23:02:00,
2013-04-01 16:32:00,57.0,13.0,-100.00,SW,215,15.0,30.0,17,0.00,,,0.00,546.000000,,2013-04-01 23:32:00,
2013-04-01 16:43:00,57.0,13.0,-100.00,SW,215,15.0,30.0,17,0.00,,,0.00,546.000000,,2013-04-01 23:43:00,
2013-04-01 16:53:00,57.0,13.0,-100.00,SW,215,15.0,30.0,17,0.00,,,0.00,546.000000,,2013-04-01 23:53:00,
2013-04-01 17:02:00,57.0,13.0,-100.00,SW,215,15.0,30.0,17,0.00,,,0.00,546.000000,,2013-04-02 00:02:00,
2013-04-01 17:33:00,55.0,14.0,-100.00,WSW,248,13.0,24.0,19,0.00,,,0.00,353.000000,,2013-04-02 00:33:00,
2013-04-01 17:43:00,55.0,14.0,-100.00,WSW,248,13.0,24.0,19,0.00,,,0.00,353.000000,,2013-04-02 00:43:00,
2013-04-01 17:53:00,55.0,14.0,-100.00,WSW,248,13.0,24.0,19,0.00,,,0.00,353.000000,,2013-04-02 00:53:00,
2013-04-01 18:02:00,55.0,14.0,-100.00,WSW,248,13.0,24.0,19,0.00,,,0.00,353.000000,,2013-04-02 01:02:00,
2013-04-01 18:32:00,51.0,8.0,-100.00,WSW,240,10.0,24.0,17,0.00,,,0.00,151.000000,,2013-04-02 01:32:00,
2013-04-01 18:43:00,51.0,8.0,-100.00,WSW,240,10.0,24.0,17,0.00,,,0.00,151.000000,,2013-04-02 01:43:00,
2013-04-01 18:52:00,51.0,8.0,-100.00,WSW,240,10.0,24.0,17,0.00,,,0.00,151.000000,,2013-04-02 01:52:00,
2013-04-01 19:02:00,51.0,8.0,-100.00,WSW,240,10.0,24.0,17,0.00,,,0.00,151.000000,,2013-04-02 02:02:00,
2013-04-01 19:33:00,48.0,10.0,-100.00,WSW,247,10.0,21.0,21,0.00,,,0.00,32.000000,,2013-04-02 02:33:00,
2013-04-01 19:42:00,48.0,10.0,-100.00,WSW,247,10.0,21.0,21,0.00,,,0.00,32.000000,,2013-04-02 02:42:00,
2013-04-01 19:52:00,48.0,10.0,-100.00,WSW,247,10.0,21.0,21,0.00,,,0.00,32.000000,,2013-04-02 02:52:00,
2013-04-01 20:01:00,48.0,10.0,-100.00,WSW,247,10.0,21.0,21,0.00,,,0.00,32.000000,,2013-04-02 03:01:00,
2013-04-01 20:33:00,45.0,10.0,-100.00,WSW,255,5.0,17.0,24,0.00,,,0.00,0.000000,,2013-04-02 03:33:00,
2013-04-01 20:43:00,45.0,10.0,-100.00,WSW,255,5.0,17.0,24,0.00,,,0.00,0.000000,,2013-04-02 03:43:00,
2013-04-01 20:53:00,45.0,10.0,-100.00,WSW,255,5.0,17.0,24,0.00,,,0.00,0.000000,,2013-04-02 03:53:00,
2013-04-01 21:02:00,45.0,10.0,-100.00,WSW,255,5.0,17.0,24,0.00,,,0.00,0.000000,,2013-04-02 04:02:00,
2013-04-01 21:33:00,42.0,10.0,-100.00,West,259,0.0,14.0,27,0.00,,,0.00,0.000000,,2013-04-02 04:33:00,
2013-04-01 21:43:00,42.0,10.0,-100.00,West,259,0.0,14.0,27,0.00,,,0.00,0.000000,,2013-04-02 04:43:00,
2013-04-01 21:53:00,42.0,10.0,-100.00,West,259,0.0,14.0,27,0.00,,,0.00,0.000000,,2013-04-02 04:53:00,
2013-04-01 22:02:00,42.0,10.0,-100.00,West,259,0.0,14.0,27,0.00,,,0.00,0.000000,,2013-04-02 05:02:00,
2013-04-01 22:32:00,40.0,13.0,-100.00,WSW,248,1.0,8.0,32,0.00,,,0.00,0.000000,,2013-04-02 05:32:00,
2013-04-01 22:43:00,40.0,13.0,-100.00,WSW,248,1.0,8.0,32,0.00,,,0.00,0.000000,,2013-04-02 05:43:00,
2013-04-01 22:52:00,40.0,13.0,-100.00,WSW,248,1.0,8.0,32,0.00,,,0.00,0.000000,,2013-04-02 05:52:00,
2013-04-01 23:02:00,40.0,13.0,-100.00,WSW,248,1.0,8.0,32,0.00,,,0.00,0.000000,,2013-04-02 06:02:00,
2013-04-01 23:32:00,34.0,16.0,-100.00,WSW,242,0.0,0.0,47,0.00,,,-99.99,0.000000,,2013-04-02 06:32:00,
2013-04-01 23:42:00,34.0,16.0,-100.00,WSW,242,0.0,0.0,47,0.00,,,-99.99,0.000000,,2013-04-02 06:42:00,
2013-04-01 23:52:00,34.0,16.0,-100.00,WSW,242,0.0,0.0,47,0.00,,,-99.99,0.000000,,2013-04-02 06:52:00,